createdAt,value
2022-08-28T00:00:12.587Z,4.10
2022-08-28T00:02:40.879Z,5.30
2022-08-28T00:05:09.800Z,3.63
2022-08-28T00:07:37.798Z,4.30
2022-08-28T00:10:07.089Z,6.17
2022-08-28T00:12:35.453Z,5.17
2022-08-28T00:15:03.539Z,3.47
2022-08-28T00:17:32.897Z,4.27
2022-08-28T00:20:01.071Z,3.73
2022-08-28T00:22:31.031Z,4.37
2022-08-28T00:24:59.935Z,4.30
2022-08-28T00:27:45.810Z,3.37
2022-08-28T00:30:14.238Z,6.40
2022-08-28T00:32:43.667Z,3.00
2022-08-28T00:35:12.450Z,4.73
2022-08-28T00:37:40.547Z,6.60
2022-08-28T00:40:10.151Z,2.70
2022-08-28T00:42:38.755Z,4.97
2022-08-28T00:45:07.805Z,3.77
2022-08-28T00:47:35.820Z,3.67
2022-08-28T00:50:06.006Z,3.30
2022-08-28T00:52:33.059Z,3.87
2022-08-28T00:55:02.812Z,2.67
2022-08-28T00:57:32.352Z,5.23
2022-08-28T01:00:00.474Z,2.70
2022-08-28T01:02:28.594Z,4.27
2022-08-28T01:04:56.667Z,5.60
2022-08-28T01:07:26.042Z,3.17
2022-08-28T01:09:54.571Z,2.40
2022-08-28T01:12:24.640Z,1.93
2022-08-28T01:14:53.562Z,3.90
2022-08-28T01:17:21.929Z,2.13
2022-08-28T01:19:56.475Z,4.03
2022-08-28T01:22:29.335Z,2.10
2022-08-28T01:25:02.027Z,2.07
2022-08-28T01:27:30.250Z,2.37
2022-08-28T01:29:58.653Z,2.50
2022-08-28T01:32:35.224Z,3.80
2022-08-28T01:35:03.427Z,1.17
2022-08-28T01:37:31.639Z,4.10
2022-08-28T01:40:01.578Z,2.23
2022-08-28T01:42:29.643Z,1.13
2022-08-28T01:44:58.005Z,2.13
2022-08-28T01:47:26.017Z,1.53
2022-08-28T01:49:54.058Z,3.80
2022-08-28T01:52:26.374Z,1.60
2022-08-28T01:54:54.585Z,4.40
2022-08-28T01:57:25.429Z,2.30
2022-08-28T01:59:54.479Z,1.90
2022-08-28T02:02:22.503Z,2.00
2022-08-28T02:04:50.679Z,1.13
2022-08-28T02:07:18.778Z,1.57
2022-08-28T02:09:46.835Z,2.63
2022-08-28T02:12:15.063Z,2.73
2022-08-28T02:14:44.448Z,1.77
2022-08-28T02:17:12.743Z,4.33
2022-08-28T02:19:40.737Z,1.87
2022-08-28T02:22:09.485Z,1.17
2022-08-28T02:24:37.524Z,1.43
2022-08-28T02:27:06.301Z,1.00
2022-08-28T02:29:34.316Z,4.67
2022-08-28T02:32:05.938Z,4.10
2022-08-28T02:34:34.240Z,2.63
2022-08-28T02:37:05.969Z,2.73
2022-08-28T02:39:34.000Z,1.20
2022-08-28T02:42:02.020Z,1.70
2022-08-28T02:44:30.043Z,1.27
2022-08-28T02:46:58.044Z,0.77
2022-08-28T02:49:29.101Z,1.17
2022-08-28T02:52:05.010Z,1.53
2022-08-28T02:54:32.995Z,1.53
2022-08-28T02:57:01.117Z,2.37
2022-08-28T02:59:29.567Z,3.93
2022-08-28T03:01:57.586Z,3.93
2022-08-28T03:04:27.049Z,2.17
2022-08-28T03:06:55.107Z,3.40
2022-08-28T03:09:23.159Z,3.27
2022-08-28T03:11:53.892Z,3.40
2022-08-28T03:14:21.996Z,4.47
2022-08-28T03:16:50.042Z,5.57
2022-08-28T03:19:18.118Z,6.17
2022-08-28T03:21:47.595Z,2.93
2022-08-28T03:24:15.813Z,3.73
2022-08-28T03:26:44.290Z,4.67
2022-08-28T03:29:12.331Z,5.77
2022-08-28T03:31:40.429Z,4.27
2022-08-28T03:34:08.432Z,5.37
2022-08-28T03:36:36.432Z,5.63
2022-08-28T03:39:06.826Z,6.13
2022-08-28T03:41:35.164Z,5.13
2022-08-28T03:44:03.440Z,4.87
2022-08-28T03:46:32.974Z,4.23
2022-08-28T03:49:02.499Z,4.40
2022-08-28T03:51:31.690Z,4.40
2022-08-28T03:53:59.896Z,3.60
2022-08-28T03:56:30.282Z,4.37
2022-08-28T03:59:00.031Z,5.80
2022-08-28T04:01:28.495Z,4.40
2022-08-28T04:03:57.017Z,4.53
2022-08-28T04:06:25.064Z,3.00
2022-08-28T04:08:53.117Z,5.73
2022-08-28T04:11:21.315Z,5.73
2022-08-28T04:13:50.764Z,7.37
2022-08-28T04:16:21.371Z,3.77
2022-08-28T04:18:50.257Z,3.70
2022-08-28T04:21:19.584Z,3.23
2022-08-28T04:23:48.012Z,4.37
2022-08-28T04:26:17.431Z,3.10
2022-08-28T04:28:45.496Z,5.23
2022-08-28T04:31:15.070Z,3.70
2022-08-28T04:33:43.172Z,4.03
2022-08-28T04:36:12.319Z,5.97
2022-08-28T04:38:43.648Z,5.90
2022-08-28T04:41:13.395Z,4.87
2022-08-28T04:43:41.441Z,3.87
2022-08-28T04:46:11.685Z,4.87
2022-08-28T04:48:41.659Z,3.80
2022-08-28T04:51:10.756Z,7.13
2022-08-28T04:53:38.942Z,7.13
2022-08-28T04:56:08.448Z,5.17
2022-08-28T04:58:36.963Z,6.53
2022-08-28T05:01:06.830Z,3.97
2022-08-28T05:03:35.334Z,7.93
2022-08-28T05:06:05.485Z,7.00
2022-08-28T05:08:33.557Z,6.67
2022-08-28T05:11:11.010Z,6.87
2022-08-28T05:13:39.077Z,6.83
2022-08-28T05:16:07.465Z,7.30
2022-08-28T05:18:35.854Z,8.57
2022-08-28T05:21:05.443Z,7.57
2022-08-28T05:23:33.727Z,9.63
2022-08-28T05:26:01.764Z,7.07
2022-08-28T05:28:29.852Z,8.87
2022-08-28T05:30:57.941Z,6.27
2022-08-28T05:33:26.030Z,9.07
2022-08-28T05:35:54.066Z,8.40
2022-08-28T05:38:23.831Z,9.93
2022-08-28T05:40:51.992Z,13.07
2022-08-28T05:43:20.001Z,8.67
2022-08-28T05:45:57.818Z,10.20
2022-08-28T05:48:30.304Z,8.40
2022-08-28T05:50:58.577Z,9.40
2022-08-28T05:53:28.270Z,8.07
2022-08-28T05:55:56.528Z,11.97
2022-08-28T05:58:31.358Z,13.40
2022-08-28T06:01:10.091Z,9.47
2022-08-28T06:03:38.575Z,10.07
2022-08-28T06:06:06.882Z,11.13
2022-08-28T06:08:36.414Z,12.30
2022-08-28T06:11:05.294Z,11.93
2022-08-28T06:13:35.232Z,13.43
2022-08-28T06:16:04.948Z,11.67
2022-08-28T06:18:35.264Z,11.97
2022-08-28T06:21:03.655Z,12.57
2022-08-28T06:23:31.754Z,9.93
2022-08-28T06:26:01.406Z,14.90
2022-08-28T06:28:29.513Z,12.57
2022-08-28T06:31:18.376Z,12.63
2022-08-28T06:33:46.143Z,9.33
2022-08-28T06:36:14.204Z,10.40
2022-08-28T06:38:46.518Z,12.10
2022-08-28T06:41:16.342Z,12.73
2022-08-28T06:43:44.370Z,13.30
2022-08-28T06:46:13.737Z,10.37
2022-08-28T06:48:41.824Z,11.97
2022-08-28T06:51:10.958Z,11.00
2022-08-28T06:53:40.059Z,13.30
2022-08-28T06:56:09.565Z,12.33
2022-08-28T06:58:40.650Z,13.03
2022-08-28T07:01:10.441Z,13.73
2022-08-28T07:03:44.183Z,11.23
2022-08-28T07:06:13.034Z,11.67
2022-08-28T07:08:41.850Z,8.40
2022-08-28T07:11:13.964Z,11.13
2022-08-28T07:13:43.325Z,12.47
2022-08-28T07:16:11.797Z,15.03
2022-08-28T07:18:39.953Z,10.27
2022-08-28T07:21:12.312Z,16.00
2022-08-28T07:23:40.895Z,17.60
2022-08-28T07:26:10.776Z,12.27
2022-08-28T07:28:38.826Z,10.13
2022-08-28T07:31:09.910Z,12.03
2022-08-28T07:33:39.579Z,6.47
2022-08-28T07:36:08.184Z,8.07
2022-08-28T07:38:43.859Z,6.30
2022-08-28T07:41:15.777Z,5.33
2022-08-28T07:44:01.186Z,3.83
2022-08-28T07:46:30.857Z,4.23
2022-08-28T07:48:59.780Z,7.80
2022-08-28T07:51:28.039Z,3.40
2022-08-28T07:53:57.285Z,3.03
2022-08-28T07:56:26.103Z,1.50
2022-08-28T07:58:54.122Z,3.60
2022-08-28T08:01:22.244Z,2.47
2022-08-28T08:03:51.718Z,3.57
2022-08-28T08:06:28.891Z,7.07
2022-08-28T08:09:02.465Z,1.87
2022-08-28T08:11:32.536Z,1.10
2022-08-28T08:14:04.767Z,1.13
2022-08-28T08:16:34.726Z,2.80
2022-08-28T08:19:04.312Z,1.53
2022-08-28T08:21:32.672Z,3.70
2022-08-28T08:24:00.726Z,5.97
2022-08-28T08:26:29.578Z,1.57
2022-08-28T08:28:58.183Z,0.63
2022-08-28T08:31:27.378Z,2.30
2022-08-28T08:33:57.614Z,2.73
2022-08-28T08:36:27.822Z,1.00
2022-08-28T08:38:59.833Z,2.70
2022-08-28T08:41:31.484Z,0.70
2022-08-28T08:44:02.364Z,1.00
2022-08-28T08:46:33.622Z,1.33
2022-08-28T08:49:03.779Z,2.07
2022-08-28T08:51:40.622Z,3.67
2022-08-28T08:54:12.170Z,2.50
2022-08-28T08:56:43.824Z,1.00
2022-08-28T08:59:17.533Z,0.67
2022-08-28T09:01:48.424Z,2.40
2022-08-28T09:04:24.748Z,0.73
2022-08-28T09:06:57.503Z,0.67
2022-08-28T09:09:28.722Z,0.87
2022-08-28T09:11:58.417Z,1.27
2022-08-28T09:14:33.114Z,1.17
2022-08-28T09:17:01.157Z,2.33
2022-08-28T09:19:29.437Z,0.57
2022-08-28T09:22:01.433Z,1.07
2022-08-28T09:24:32.090Z,0.80
2022-08-28T09:27:01.665Z,1.60
2022-08-28T09:29:32.065Z,3.03
2022-08-28T09:32:00.158Z,1.30
2022-08-28T09:34:31.849Z,1.60
2022-08-28T09:37:03.621Z,1.43
2022-08-28T09:39:32.108Z,3.87
2022-08-28T09:42:23.318Z,0.73
2022-08-28T09:44:56.563Z,2.60
2022-08-28T09:47:46.814Z,0.87
2022-08-28T09:50:30.413Z,0.73
2022-08-28T09:53:01.261Z,2.33
2022-08-28T09:55:32.780Z,0.93
2022-08-28T09:58:01.261Z,0.37
2022-08-28T10:00:30.272Z,0.50
2022-08-28T10:03:04.441Z,0.97
2022-08-28T10:05:39.078Z,0.60
2022-08-28T10:08:14.716Z,0.40
2022-08-28T10:10:45.435Z,0.80
2022-08-28T10:13:17.222Z,2.53
2022-08-28T10:16:09.631Z,0.77
2022-08-28T10:18:41.070Z,1.13
2022-08-28T10:21:14.181Z,0.97
2022-08-28T10:23:50.494Z,0.60
2022-08-28T10:26:26.836Z,1.90
2022-08-28T10:28:59.827Z,0.83
2022-08-28T10:31:31.780Z,0.93
2022-08-28T10:34:07.115Z,0.50
2022-08-28T10:36:36.001Z,0.50
2022-08-28T10:39:13.302Z,0.57
2022-08-28T10:41:42.918Z,3.77
2022-08-28T10:44:10.978Z,3.33
2022-08-28T10:46:41.691Z,0.80
2022-08-28T10:49:11.728Z,1.10
2022-08-28T10:51:44.393Z,0.77
2022-08-28T10:54:23.136Z,1.73
2022-08-28T10:56:56.548Z,0.90
2022-08-28T10:59:25.151Z,1.93
2022-08-28T11:01:53.246Z,1.30
2022-08-28T11:04:25.446Z,0.87
2022-08-28T11:06:55.697Z,0.80
2022-08-28T11:09:32.703Z,1.37
2022-08-28T11:12:02.487Z,1.07
2022-08-28T11:14:32.737Z,2.03
2022-08-28T11:17:02.606Z,0.40
2022-08-28T11:19:58.426Z,1.50
2022-08-28T11:22:27.764Z,0.50
2022-08-28T11:25:04.409Z,2.23
2022-08-28T11:27:36.645Z,0.70
2022-08-28T11:30:32.919Z,0.47
2022-08-28T11:33:25.968Z,0.33
2022-08-28T11:35:54.094Z,0.60
2022-08-28T11:38:55.651Z,1.73
2022-08-28T11:41:27.323Z,0.43
2022-08-28T11:44:26.983Z,0.83
2022-08-28T11:46:57.095Z,2.47
2022-08-28T11:49:44.730Z,1.17
2022-08-28T11:52:34.202Z,0.47
2022-08-28T11:55:11.783Z,1.00
2022-08-28T11:57:55.074Z,0.80
2022-08-28T12:00:27.023Z,0.40
2022-08-28T12:03:00.259Z,1.23
2022-08-28T12:05:46.094Z,0.93
2022-08-28T12:08:14.896Z,1.03
2022-08-28T12:10:59.584Z,0.40
2022-08-28T12:13:49.799Z,0.90
2022-08-28T12:16:17.916Z,0.87
2022-08-28T12:19:01.326Z,0.30
2022-08-28T12:21:29.806Z,1.30
2022-08-28T12:24:09.161Z,1.30
2022-08-28T12:26:39.951Z,0.80
2022-08-28T12:29:19.718Z,0.50
2022-08-28T12:32:12.825Z,0.60
2022-08-28T12:34:54.118Z,0.43
2022-08-28T12:37:52.390Z,0.30
2022-08-28T12:40:22.459Z,0.33
2022-08-28T12:42:55.232Z,0.30
2022-08-28T12:45:27.246Z,0.40
2022-08-28T12:47:57.645Z,1.23
2022-08-28T12:50:27.752Z,0.40
2022-08-28T12:52:57.165Z,0.40
2022-08-28T12:55:27.624Z,0.67
2022-08-28T12:57:55.711Z,1.60
2022-08-28T13:00:26.269Z,0.80
2022-08-28T13:02:55.540Z,0.80
2022-08-28T13:05:28.941Z,0.60
2022-08-28T13:07:57.075Z,1.30
2022-08-28T13:10:25.949Z,0.67
2022-08-28T13:12:57.419Z,1.27
2022-08-28T13:15:45.830Z,0.53
2022-08-28T13:18:35.322Z,0.30
2022-08-28T13:21:13.564Z,1.97
2022-08-28T13:23:42.341Z,1.73
2022-08-28T13:26:10.996Z,2.10
2022-08-28T13:28:39.339Z,0.60
2022-08-28T13:31:09.843Z,1.10
2022-08-28T13:33:39.600Z,0.37
2022-08-28T13:36:21.381Z,0.47
2022-08-28T13:38:49.618Z,3.43
2022-08-28T13:41:21.005Z,1.97
2022-08-28T13:43:49.729Z,1.13
2022-08-28T13:46:20.107Z,2.73
2022-08-28T13:48:48.762Z,0.83
2022-08-28T13:51:20.869Z,0.17
2022-08-28T13:53:49.719Z,0.50
2022-08-28T13:56:17.829Z,0.40
2022-08-28T13:58:47.813Z,2.57
2022-08-28T14:01:47.230Z,0.20
2022-08-28T14:04:14.728Z,0.40
2022-08-28T14:06:44.488Z,0.53
2022-08-28T14:09:15.111Z,4.80
2022-08-28T14:11:44.011Z,0.97
2022-08-28T14:14:12.280Z,0.80
2022-08-28T14:16:41.744Z,0.50
2022-08-28T14:19:11.178Z,0.40
2022-08-28T14:21:39.904Z,3.90
2022-08-28T14:24:08.448Z,0.33
2022-08-28T14:26:36.531Z,0.63
2022-08-28T14:29:05.977Z,0.40
2022-08-28T14:31:36.251Z,5.10
2022-08-28T14:34:05.758Z,3.23
2022-08-28T14:36:33.956Z,0.40
2022-08-28T14:39:06.284Z,0.53
2022-08-28T14:41:34.531Z,0.40
2022-08-28T14:44:03.499Z,0.20
2022-08-28T14:46:32.777Z,0.73
2022-08-28T14:49:03.095Z,0.80
2022-08-28T14:51:32.918Z,0.70
2022-08-28T14:54:01.159Z,0.50
2022-08-28T14:56:31.662Z,0.53
2022-08-28T14:59:00.167Z,5.00
2022-08-28T15:01:36.279Z,0.20
2022-08-28T15:04:10.501Z,0.40
2022-08-28T15:06:42.161Z,0.67
2022-08-28T15:09:10.313Z,1.70
2022-08-28T15:11:38.390Z,0.90
2022-08-28T15:14:06.702Z,0.40
2022-08-28T15:16:35.819Z,0.40
2022-08-28T15:19:04.350Z,0.67
2022-08-28T15:21:33.485Z,0.87
2022-08-28T15:24:03.945Z,1.23
2022-08-28T15:26:34.232Z,0.80
2022-08-28T15:29:03.308Z,0.50
2022-08-28T15:31:31.553Z,0.93
2022-08-28T15:33:59.661Z,1.23
2022-08-28T15:36:27.715Z,0.87
2022-08-28T15:39:12.999Z,0.43
2022-08-28T15:41:42.377Z,0.40
2022-08-28T15:44:14.825Z,2.00
2022-08-28T15:46:43.198Z,0.53
2022-08-28T15:49:11.243Z,1.03
2022-08-28T15:51:39.288Z,0.50
2022-08-28T15:54:07.479Z,0.50
2022-08-28T15:56:35.506Z,0.37
2022-08-28T15:59:04.969Z,0.50
2022-08-28T16:01:33.035Z,1.63
2022-08-28T16:04:01.101Z,0.50
2022-08-28T16:06:29.267Z,1.43
2022-08-28T16:08:58.598Z,1.63
2022-08-28T16:11:26.866Z,1.07
2022-08-28T16:13:55.293Z,1.47
2022-08-28T16:16:25.092Z,0.70
2022-08-28T16:18:54.190Z,0.30
2022-08-28T16:21:22.228Z,0.43
2022-08-28T16:23:50.473Z,0.60
2022-08-28T16:26:18.617Z,0.97
2022-08-28T16:28:46.646Z,1.37
2022-08-28T16:31:19.415Z,2.07
2022-08-28T16:33:50.511Z,1.03
2022-08-28T16:36:21.686Z,0.53
2022-08-28T16:38:59.686Z,0.50
2022-08-28T16:41:31.985Z,1.97
2022-08-28T16:44:00.246Z,1.20
2022-08-28T16:46:28.397Z,0.70
2022-08-28T16:48:57.966Z,0.47
2022-08-28T16:51:29.768Z,0.63
2022-08-28T16:53:58.048Z,0.93
2022-08-28T16:56:26.620Z,1.30
2022-08-28T16:58:54.696Z,2.03
2022-08-28T17:01:24.129Z,0.57
2022-08-28T17:03:52.789Z,0.40
2022-08-28T17:06:24.579Z,0.50
2022-08-28T17:08:56.688Z,1.07
2022-08-28T17:11:25.336Z,0.33
2022-08-28T17:13:53.446Z,0.57
2022-08-28T17:16:21.772Z,0.80
2022-08-28T17:18:52.406Z,1.00
2022-08-28T17:21:48.641Z,2.00
2022-08-28T17:24:16.871Z,0.63
2022-08-28T17:26:44.859Z,9.33
2022-08-28T17:29:12.935Z,1.33
2022-08-28T17:31:41.208Z,0.40
2022-08-28T17:34:09.402Z,0.73
2022-08-28T17:36:38.962Z,0.60
2022-08-28T17:39:08.073Z,0.70
2022-08-28T17:41:39.327Z,0.83
2022-08-28T17:44:07.382Z,0.57
2022-08-28T17:46:37.956Z,0.40
2022-08-28T17:49:07.005Z,0.77
2022-08-28T17:51:42.459Z,0.77
2022-08-28T17:54:13.604Z,0.97
2022-08-28T17:56:41.760Z,1.20
2022-08-28T17:59:10.133Z,4.23
2022-08-28T18:01:38.500Z,0.50
2022-08-28T18:04:07.331Z,1.53
2022-08-28T18:06:35.414Z,1.40
2022-08-28T18:09:03.437Z,1.93
2022-08-28T18:11:32.834Z,1.23
2022-08-28T18:14:00.866Z,1.23
2022-08-28T18:16:31.607Z,0.83
2022-08-28T18:18:59.939Z,0.90
2022-08-28T18:21:28.024Z,1.40
2022-08-28T18:23:56.059Z,1.53
2022-08-28T18:26:24.132Z,3.30
2022-08-28T18:28:53.670Z,2.30
2022-08-28T18:31:21.737Z,1.13
2022-08-28T18:33:49.979Z,2.00
2022-08-28T18:36:18.044Z,0.87
2022-08-28T18:38:47.149Z,1.00
2022-08-28T18:41:15.287Z,1.00
2022-08-28T18:43:43.370Z,1.27
2022-08-28T18:46:14.283Z,0.97
2022-08-28T18:48:42.445Z,2.27
2022-08-28T18:51:10.793Z,1.63
2022-08-28T18:53:39.044Z,0.63
2022-08-28T18:56:12.182Z,0.70
2022-08-28T18:58:40.683Z,0.53
2022-08-28T19:01:11.634Z,0.90
2022-08-28T19:03:41.108Z,1.57
2022-08-28T19:06:12.351Z,0.50
2022-08-28T19:08:40.393Z,2.10
2022-08-28T19:11:09.068Z,1.07
2022-08-28T19:13:37.197Z,1.10
2022-08-28T19:16:05.587Z,1.23
2022-08-28T19:18:33.708Z,1.33
2022-08-28T19:21:07.061Z,2.33
2022-08-28T19:23:35.113Z,0.97
2022-08-28T19:26:03.204Z,1.53
2022-08-28T19:28:31.294Z,2.07
2022-08-28T19:30:59.371Z,1.53
2022-08-28T19:33:27.698Z,1.17
2022-08-28T19:35:55.767Z,0.80
2022-08-28T19:38:25.356Z,1.97
2022-08-28T19:40:57.570Z,0.77
2022-08-28T19:43:42.733Z,3.30
2022-08-28T19:46:18.274Z,1.33
2022-08-28T19:48:48.563Z,1.23
2022-08-28T19:51:22.481Z,1.90
2022-08-28T19:53:58.750Z,4.27
2022-08-28T19:56:28.010Z,1.20
2022-08-28T19:58:57.521Z,1.87
2022-08-28T20:01:25.670Z,1.50
2022-08-28T20:03:53.873Z,1.20
2022-08-28T20:06:24.513Z,2.77
2022-08-28T20:08:54.075Z,2.87
2022-08-28T20:11:25.134Z,0.97
2022-08-28T20:13:53.476Z,0.67
2022-08-28T20:16:21.587Z,3.17
2022-08-28T20:18:50.411Z,0.73
2022-08-28T20:21:37.336Z,2.20
2022-08-28T20:24:08.392Z,0.70
2022-08-28T20:26:36.566Z,3.00
2022-08-28T20:29:04.842Z,1.07
2022-08-28T20:31:33.551Z,1.70
2022-08-28T20:34:01.617Z,1.23
2022-08-28T20:36:29.661Z,0.60
2022-08-28T20:38:57.918Z,1.63
2022-08-28T20:41:27.339Z,1.60
2022-08-28T20:43:55.633Z,0.80
2022-08-28T20:46:24.155Z,0.87
2022-08-28T20:48:52.983Z,2.00
2022-08-28T20:51:41.605Z,1.83
2022-08-28T20:54:09.899Z,2.07
2022-08-28T20:56:39.540Z,1.53
2022-08-28T20:59:08.562Z,1.90
2022-08-28T21:01:36.751Z,1.23
2022-08-28T21:04:05.419Z,1.07
2022-08-28T21:06:33.472Z,2.10
2022-08-28T21:09:01.513Z,1.77
2022-08-28T21:11:29.510Z,2.27
2022-08-28T21:13:58.939Z,0.97
2022-08-28T21:16:27.259Z,1.20
2022-08-28T21:19:14.672Z,0.60
2022-08-28T21:21:44.074Z,0.70
2022-08-28T21:24:13.591Z,0.67
2022-08-28T21:26:42.584Z,1.07
2022-08-28T21:29:12.549Z,0.70
2022-08-28T21:31:41.884Z,0.70
2022-08-28T21:34:10.289Z,0.47
2022-08-28T21:36:38.404Z,0.57
2022-08-28T21:39:06.762Z,2.27
2022-08-28T21:41:34.932Z,0.37
2022-08-28T21:44:02.953Z,1.90
2022-08-28T21:46:32.619Z,0.40
2022-08-28T21:49:00.661Z,0.50
2022-08-28T21:51:28.719Z,1.93
2022-08-28T21:53:57.759Z,6.50
2022-08-28T21:56:27.922Z,1.97
2022-08-28T21:58:56.246Z,0.50
2022-08-28T22:01:26.018Z,0.33
2022-08-28T22:03:55.724Z,0.50
2022-08-28T22:06:24.308Z,0.30
2022-08-28T22:08:52.679Z,2.77
2022-08-28T22:11:25.165Z,0.40
2022-08-28T22:13:53.741Z,0.50
2022-08-28T22:16:21.977Z,0.30
2022-08-28T22:18:50.042Z,1.40
2022-08-28T22:21:37.996Z,0.40
2022-08-28T22:24:07.609Z,0.83
2022-08-28T22:26:35.743Z,2.03
2022-08-28T22:29:03.786Z,0.43
2022-08-28T22:31:32.292Z,0.40
2022-08-28T22:34:00.492Z,0.60
2022-08-28T22:36:30.066Z,1.60
2022-08-28T22:38:58.424Z,0.67
2022-08-28T22:41:26.426Z,0.20
2022-08-28T22:43:54.840Z,0.77
2022-08-28T22:46:22.955Z,0.87
2022-08-28T22:48:51.971Z,0.70
2022-08-28T22:51:20.462Z,0.50
2022-08-28T22:53:49.834Z,0.33
2022-08-28T22:56:18.177Z,1.70
2022-08-28T22:58:46.415Z,0.30
2022-08-28T23:01:15.801Z,1.80
2022-08-28T23:03:43.959Z,0.97
2022-08-28T23:06:12.146Z,0.67
2022-08-28T23:08:40.168Z,0.63
2022-08-28T23:11:09.609Z,0.80
2022-08-28T23:13:37.693Z,0.77
2022-08-28T23:16:05.770Z,1.27
2022-08-28T23:18:51.958Z,0.70
2022-08-28T23:21:23.164Z,0.43
2022-08-28T23:23:51.339Z,1.13
2022-08-28T23:26:20.733Z,1.67
2022-08-28T23:28:48.759Z,0.80
2022-08-28T23:31:16.797Z,0.80
2022-08-28T23:33:45.513Z,0.80
2022-08-28T23:36:14.085Z,1.07
2022-08-28T23:38:43.093Z,0.50
2022-08-28T23:41:11.469Z,0.37
2022-08-28T23:43:42.655Z,0.30
2022-08-28T23:46:13.433Z,0.60
2022-08-28T23:48:41.666Z,1.07
2022-08-28T23:51:10.024Z,0.90
2022-08-28T23:53:39.882Z,1.07
2022-08-28T23:56:08.409Z,1.43
2022-08-28T23:58:36.450Z,0.47
